Time;durP1;ratioP1;P1;durP2;ratioP2;P2;SDS_P1;SDS_P2;PMS_P1;PMS_P2;Temp;Humidity;BMP_temperature;BMP_pressure;BME280_temperature;BME280_humidity;BME280_pressure;Samples;Min_cycle;Max_cycle;Signal;HPM_P1;HPM_P2
2023/01/05 00:00:53;;;;;;;32.08;5.82;;;9.70;99.90;;;;;;5078629;28;20044;-85
2023/01/05 00:03:19;;;;;;;28.33;5.93;;;9.70;99.90;;;;;;5062479;28;20186;-84
2023/01/05 00:05:44;;;;;;;28.08;5.70;;;9.70;99.90;;;;;;5065461;28;20548;-84
2023/01/05 00:08:10;;;;;;;31.42;6.13;;;9.70;99.90;;;;;;5061835;28;20037;-84
2023/01/05 00:24:23;;;;;;;30.00;6.18;;;9.70;99.90;;;;;;5063759;28;20515;-84
2023/01/05 00:26:48;;;;;;;29.13;6.07;;;9.70;99.90;;;;;;5065776;28;20043;-84
2023/01/05 00:29:14;;;;;;;26.95;6.57;;;9.70;99.90;;;;;;5048595;28;20101;-84
2023/01/05 00:31:39;;;;;;;31.38;6.15;;;9.70;99.90;;;;;;5048153;28;20094;-84
2023/01/05 00:34:05;;;;;;;29.08;7.32;;;9.70;99.90;;;;;;5047697;28;20044;-84
2023/01/05 00:36:30;;;;;;;28.52;5.82;;;9.70;99.90;;;;;;5048020;28;20128;-84
2023/01/05 00:38:56;;;;;;;24.48;6.10;;;9.70;99.90;;;;;;5060933;28;20481;-84
2023/01/05 00:41:21;;;;;;;30.55;5.20;;;9.60;99.90;;;;;;5047515;28;20062;-84
2023/01/05 00:43:47;;;;;;;26.70;6.05;;;9.60;99.90;;;;;;5049140;28;20064;-84
2023/01/05 00:46:12;;;;;;;25.48;7.25;;;9.60;99.90;;;;;;5045153;28;20043;-84
2023/01/05 00:48:38;;;;;;;28.33;6.80;;;9.70;99.90;;;;;;5063938;28;20086;-84
2023/01/05 00:51:04;;;;;;;22.08;4.70;;;9.70;99.90;;;;;;5063904;28;20147;-84
2023/01/05 00:53:29;;;;;;;28.15;5.88;;;9.70;99.90;;;;;;5074751;28;20543;-84
2023/01/05 00:55:58;;;;;;;29.25;5.45;;;9.70;99.90;;;;;;5064698;28;20492;-84
2023/01/05 00:58:24;;;;;;;27.92;5.30;;;9.70;99.90;;;;;;5047601;28;20060;-85
2023/01/05 01:00:50;;;;;;;30.05;5.00;;;9.70;99.90;;;;;;5063928;28;20060;-85
2023/01/05 01:03:15;;;;;;;33.67;5.53;;;9.70;99.90;;;;;;5057543;28;20064;-84
2023/01/05 01:05:41;;;;;;;28.55;4.80;;;9.70;99.90;;;;;;5059744;28;20040;-84
2023/01/05 01:08:06;;;;;;;26.45;4.45;;;9.70;99.90;;;;;;5073281;28;20228;-84
2023/01/05 01:10:32;;;;;;;24.55;5.25;;;9.70;99.90;;;;;;5046725;28;20690;-84
2023/01/05 01:12:58;;;;;;;30.30;5.47;;;9.70;99.90;;;;;;5046227;28;20044;-84
2023/01/05 01:15:23;;;;;;;30.38;5.88;;;9.70;99.90;;;;;;5062434;28;20044;-85
2023/01/05 01:17:49;;;;;;;31.17;5.22;;;9.70;99.90;;;;;;5062240;28;20555;-85
2023/01/05 01:20:15;;;;;;;30.75;5.65;;;9.80;99.90;;;;;;5064281;28;20040;-85
2023/01/05 01:22:40;;;;;;;21.15;4.78;;;9.80;99.90;;;;;;5044989;28;20090;-85
2023/01/05 01:25:06;;;;;;;30.45;5.25;;;9.80;99.90;;;;;;5048414;28;20025;-86
2023/01/05 01:27:32;;;;;;;25.85;5.13;;;9.90;99.90;;;;;;5046513;28;20079;-85
2023/01/05 01:29:57;;;;;;;21.88;5.82;;;9.80;99.90;;;;;;5047131;28;20040;-85
2023/01/05 01:32:23;;;;;;;23.38;5.32;;;9.80;99.90;;;;;;5048058;28;20040;-85
2023/01/05 01:34:49;;;;;;;28.10;5.22;;;9.90;99.90;;;;;;5048418;28;20063;-85
2023/01/05 01:37:15;;;;;;;23.10;4.20;;;9.90;99.90;;;;;;5045230;28;20082;-85
2023/01/05 01:39:41;;;;;;;22.50;4.63;;;9.90;99.90;;;;;;5060382;28;20119;-85
2023/01/05 01:42:13;;;;;;;27.17;5.18;;;9.90;99.90;;;;;;5048198;28;20551;-86
2023/01/05 01:44:55;;;;;;;26.95;5.22;;;9.90;99.90;;;;;;5062696;28;20079;-85
2023/01/05 01:47:30;;;;;;;22.70;4.70;;;9.90;99.90;;;;;;5043657;28;20037;-86
2023/01/05 01:50:00;;;;;;;21.92;4.55;;;9.80;99.90;;;;;;5047001;28;20370;-85
2023/01/05 01:52:28;;;;;;;24.77;4.82;;;9.80;99.90;;;;;;5045911;28;20045;-86
2023/01/05 01:54:54;;;;;;;23.75;4.22;;;9.90;99.90;;;;;;5046774;28;20043;-86
2023/01/05 01:57:21;;;;;;;24.38;4.88;;;9.90;99.90;;;;;;5061736;28;20044;-86
2023/01/05 01:59:47;;;;;;;24.75;5.18;;;9.90;99.90;;;;;;5048703;28;20040;-84
2023/01/05 02:02:13;;;;;;;15.50;3.80;;;9.90;99.90;;;;;;5067327;28;20051;-85
2023/01/05 02:04:39;;;;;;;21.90;4.47;;;9.90;99.90;;;;;;5066116;28;20098;-85
2023/01/05 02:07:09;;;;;;;20.33;4.60;;;9.90;99.90;;;;;;5065760;28;20046;-87
2023/01/05 02:09:35;;;;;;;22.50;4.45;;;9.90;99.90;;;;;;5065606;28;20064;-86
2023/01/05 02:12:20;;;;;;;25.17;4.85;;;9.90;99.90;;;;;;5049751;28;20582;-86
2023/01/05 02:15:08;;;;;;;25.02;4.57;;;9.90;99.90;;;;;;5064402;28;20534;-86
2023/01/05 02:17:55;;;;;;;22.45;4.93;;;9.90;99.90;;;;;;5067876;28;20048;-86
2023/01/05 02:20:48;;;;;;;20.25;4.70;;;9.90;99.90;;;;;;5079244;28;20041;-86
2023/01/05 02:23:27;;;;;;;20.95;5.30;;;9.90;99.90;;;;;;5052022;28;20185;-86
2023/01/05 02:26:03;;;;;;;26.63;5.20;;;9.90;99.90;;;;;;5048170;28;20036;-86
2023/01/05 02:28:40;;;;;;;25.95;5.28;;;9.90;99.90;;;;;;5051591;28;20521;-86
2023/01/05 02:31:17;;;;;;;16.48;4.13;;;9.80;99.90;;;;;;5050689;28;20040;-87
2023/01/05 02:34:10;;;;;;;23.83;5.18;;;9.80;99.90;;;;;;5067947;28;20044;-86
2023/01/05 02:36:45;;;;;;;23.00;5.13;;;9.80;99.90;;;;;;5066697;28;20045;-85
2023/01/05 02:39:24;;;;;;;21.10;4.00;;;9.70;99.90;;;;;;5050361;28;20043;-86
2023/01/05 02:42:19;;;;;;;24.08;4.95;;;9.70;99.90;;;;;;5049384;28;20056;-86
2023/01/05 02:44:45;;;;;;;21.42;4.82;;;9.70;99.90;;;;;;5065774;28;20044;-86
2023/01/05 02:47:29;;;;;;;19.20;4.45;;;9.60;99.90;;;;;;5064361;28;20048;-86
2023/01/05 02:50:01;;;;;;;17.85;3.95;;;9.60;99.90;;;;;;5051806;28;20044;-86
2023/01/05 02:52:35;;;;;;;22.88;4.03;;;9.60;99.90;;;;;;5065854;28;20492;-86
2023/01/05 02:55:10;;;;;;;22.70;4.93;;;9.60;99.90;;;;;;5048547;28;20068;-86
2023/01/05 02:57:49;;;;;;;21.55;4.70;;;9.60;99.90;;;;;;5082150;28;20043;-86
2023/01/05 03:00:38;;;;;;;24.63;4.45;;;9.60;99.90;;;;;;5049177;28;20051;-86
2023/01/05 03:03:30;;;;;;;22.73;5.07;;;9.60;99.90;;;;;;5020854;28;20093;-86
2023/01/05 03:06:03;;;;;;;19.38;4.60;;;9.60;99.90;;;;;;5046331;28;20460;-87
2023/01/05 03:08:32;;;;;;;25.52;5.10;;;9.60;99.90;;;;;;5050091;28;20456;-86
2023/01/05 03:14:13;;;;;;;18.17;4.20;;;9.60;99.90;;;;;;5067279;28;20049;-86
2023/01/05 03:16:39;;;;;;;26.15;4.93;;;9.70;99.90;;;;;;5063613;28;20052;-86
2023/01/05 03:35:57;;;;;;;28.67;5.20;;;9.80;99.90;;;;;;5064230;28;20416;-86
2023/01/05 03:38:35;;;;;;;26.45;5.38;;;9.80;99.90;;;;;;5046239;28;20547;-86
2023/01/05 03:41:03;;;;;;;24.92;5.25;;;9.80;99.90;;;;;;5081148;28;20072;-87
2023/01/05 03:43:33;;;;;;;23.48;4.97;;;9.70;99.90;;;;;;5049228;28;20036;-86
2023/01/05 03:45:59;;;;;;;20.02;4.70;;;9.80;99.90;;;;;;5048362;28;20048;-86
2023/01/05 03:48:27;;;;;;;24.55;5.32;;;9.70;99.90;;;;;;5049664;28;20040;-86
2023/01/05 03:50:53;;;;;;;24.77;5.10;;;9.70;99.90;;;;;;5048285;28;20071;-87
2023/01/05 03:53:19;;;;;;;21.00;4.70;;;9.70;99.90;;;;;;5049573;28;20039;-86
2023/01/05 03:55:44;;;;;;;24.05;5.50;;;9.80;99.90;;;;;;5044870;28;20037;-86
2023/01/05 03:58:10;;;;;;;26.00;4.38;;;9.70;99.90;;;;;;5049342;28;20039;-86
2023/01/05 04:00:35;;;;;;;29.77;5.30;;;9.70;99.90;;;;;;5061926;28;20037;-86
2023/01/05 04:03:01;;;;;;;26.17;4.40;;;9.70;99.90;;;;;;5048590;28;20033;-86
2023/01/05 04:05:27;;;;;;;23.55;4.85;;;9.60;99.90;;;;;;5064618;28;20041;-86
2023/01/05 04:07:52;;;;;;;24.42;4.95;;;9.70;99.90;;;;;;5048482;28;20047;-87
2023/01/05 04:10:18;;;;;;;23.65;5.50;;;9.70;99.90;;;;;;5064970;28;20068;-86
2023/01/05 04:12:46;;;;;;;21.90;5.05;;;9.70;99.90;;;;;;5048543;28;20040;-86
2023/01/05 04:15:12;;;;;;;21.80;4.53;;;9.70;99.90;;;;;;5049092;28;20062;-86
2023/01/05 04:17:38;;;;;;;22.48;4.72;;;9.70;99.90;;;;;;5045438;28;20036;-86
2023/01/05 04:20:04;;;;;;;21.50;4.68;;;9.70;99.90;;;;;;5048151;28;20090;-87
2023/01/05 04:22:31;;;;;;;27.27;5.68;;;9.70;99.90;;;;;;5065187;28;20044;-86
2023/01/05 04:24:56;;;;;;;21.10;5.15;;;9.70;99.90;;;;;;5065189;28;20037;-86
2023/01/05 04:27:22;;;;;;;22.85;4.93;;;9.70;99.90;;;;;;5048993;28;20038;-86
2023/01/05 04:29:48;;;;;;;24.70;4.97;;;9.70;99.90;;;;;;5048421;28;20036;-86
2023/01/05 04:32:13;;;;;;;21.98;4.22;;;9.80;99.90;;;;;;5047943;28;20115;-86
2023/01/05 04:34:39;;;;;;;21.85;4.70;;;9.70;99.90;;;;;;5064027;28;20263;-87
2023/01/05 04:37:04;;;;;;;24.42;4.95;;;9.80;99.90;;;;;;5048087;28;20043;-86
2023/01/05 04:39:30;;;;;;;22.42;4.25;;;9.80;99.90;;;;;;5046594;28;20044;-86
2023/01/05 04:41:55;;;;;;;24.23;4.25;;;9.80;99.90;;;;;;5048814;28;20472;-87
2023/01/05 04:44:21;;;;;;;24.48;4.15;;;9.80;99.90;;;;;;5062595;28;20072;-86
2023/01/05 04:46:47;;;;;;;24.17;4.60;;;9.80;99.90;;;;;;5064325;28;20037;-86
2023/01/05 04:49:12;;;;;;;23.73;5.53;;;9.80;99.90;;;;;;5047299;28;20089;-86
2023/01/05 04:51:38;;;;;;;23.33;5.28;;;9.90;99.90;;;;;;5065047;28;20044;-87
2023/01/05 04:54:03;;;;;;;18.25;4.32;;;9.90;99.90;;;;;;5062115;28;20047;-86
2023/01/05 04:56:29;;;;;;;22.02;5.75;;;10.00;99.90;;;;;;5064262;28;20040;-87
2023/01/05 04:58:54;;;;;;;19.55;4.15;;;10.00;99.90;;;;;;5063071;28;20119;-86
2023/01/05 05:01:20;;;;;;;22.27;4.60;;;10.00;99.90;;;;;;5046414;28;20040;-87
2023/01/05 05:03:46;;;;;;;22.65;4.22;;;10.00;99.90;;;;;;5047567;28;20550;-86
2023/01/05 05:06:11;;;;;;;20.80;4.88;;;10.00;99.90;;;;;;5065015;28;20504;-86
2023/01/05 05:08:37;;;;;;;20.85;4.30;;;10.00;99.90;;;;;;5043690;28;20045;-87
2023/01/05 05:11:03;;;;;;;20.05;4.35;;;10.00;99.90;;;;;;5047802;28;20487;-87
2023/01/05 05:13:30;;;;;;;19.10;4.55;;;10.00;99.90;;;;;;5063227;28;20068;-86
2023/01/05 05:15:55;;;;;;;21.98;4.30;;;10.00;99.90;;;;;;5046518;28;20045;-87
2023/01/05 05:18:21;;;;;;;16.77;3.97;;;10.00;99.90;;;;;;5064396;28;20048;-86
2023/01/05 05:20:48;;;;;;;18.42;4.22;;;10.00;99.90;;;;;;5049020;28;20043;-87
2023/01/05 05:23:14;;;;;;;19.35;4.18;;;10.00;99.90;;;;;;5062945;28;20457;-87
2023/01/05 05:25:39;;;;;;;28.58;5.10;;;10.00;99.90;;;;;;5063896;28;20119;-86
2023/01/05 05:28:05;;;;;;;24.30;5.53;;;10.00;99.90;;;;;;5061192;28;20565;-87
2023/01/05 05:30:30;;;;;;;28.50;5.80;;;10.00;99.90;;;;;;5048041;28;20028;-86
2023/01/05 05:32:56;;;;;;;23.33;5.00;;;10.00;99.90;;;;;;5046322;28;20040;-86
2023/01/05 05:35:22;;;;;;;22.52;5.00;;;10.00;99.90;;;;;;5062483;28;20072;-87
2023/01/05 05:37:47;;;;;;;16.98;3.95;;;10.00;99.90;;;;;;5062343;28;20032;-87
2023/01/05 05:40:13;;;;;;;22.67;4.38;;;10.00;99.90;;;;;;5048076;28;20055;-86
2023/01/05 05:42:38;;;;;;;27.85;4.78;;;10.00;99.90;;;;;;5063532;28;20095;-87
2023/01/05 05:45:04;;;;;;;19.88;3.90;;;10.00;99.90;;;;;;5045818;28;20032;-86
2023/01/05 05:47:30;;;;;;;20.58;4.40;;;10.00;99.90;;;;;;5047630;28;20055;-86
2023/01/05 05:49:56;;;;;;;21.00;4.22;;;10.00;99.90;;;;;;5048117;28;20425;-86
2023/01/05 05:52:21;;;;;;;23.25;4.50;;;10.00;99.90;;;;;;5044749;28;20039;-86
2023/01/05 05:54:47;;;;;;;17.30;4.13;;;10.00;99.90;;;;;;5046358;28;20043;-87
2023/01/05 05:57:13;;;;;;;22.33;4.88;;;10.00;99.90;;;;;;5047761;28;20044;-87
2023/01/05 05:59:38;;;;;;;21.13;4.40;;;10.10;99.90;;;;;;5046236;28;20044;-87
2023/01/05 06:02:04;;;;;;;19.33;4.53;;;10.10;99.90;;;;;;5046509;28;20119;-87
2023/01/05 06:04:29;;;;;;;25.45;5.40;;;10.10;99.90;;;;;;5062479;28;20068;-87
2023/01/05 06:06:55;;;;;;;20.38;5.22;;;10.20;99.90;;;;;;5061090;28;20045;-86
2023/01/05 06:09:20;;;;;;;14.88;3.92;;;10.10;99.90;;;;;;5044784;28;20048;-87
2023/01/05 06:11:46;;;;;;;21.20;4.95;;;10.20;99.90;;;;;;5063592;28;20059;-87
2023/01/05 06:14:12;;;;;;;19.10;4.68;;;10.20;99.90;;;;;;5062882;28;20037;-86
2023/01/05 06:16:37;;;;;;;21.95;4.38;;;10.10;99.90;;;;;;5057646;28;20045;-86
2023/01/05 06:19:03;;;;;;;24.05;4.80;;;10.10;99.90;;;;;;5059438;28;20032;-86
2023/01/05 06:21:28;;;;;;;20.63;5.05;;;10.10;99.90;;;;;;5044435;28;20488;-86
2023/01/05 06:23:54;;;;;;;19.55;4.57;;;10.10;99.90;;;;;;5043164;28;20033;-86
2023/01/05 06:26:20;;;;;;;23.73;4.70;;;10.10;99.90;;;;;;5060690;28;20208;-87
2023/01/05 06:28:45;;;;;;;21.95;4.85;;;10.10;99.90;;;;;;5064123;28;20047;-87
2023/01/05 06:31:11;;;;;;;21.15;4.88;;;10.10;99.90;;;;;;5047456;28;20484;-87
2023/01/05 06:33:36;;;;;;;19.88;4.47;;;10.10;99.90;;;;;;5062609;28;20373;-87
2023/01/05 06:36:02;;;;;;;19.20;4.47;;;10.10;99.90;;;;;;5046170;28;20045;-87
2023/01/05 06:38:29;;;;;;;23.85;4.32;;;10.10;99.90;;;;;;5062998;28;20503;-86
2023/01/05 06:40:54;;;;;;;19.92;4.40;;;10.10;99.90;;;;;;5048357;28;20443;-87
2023/01/05 06:43:20;;;;;;;21.10;4.28;;;10.00;99.90;;;;;;5077278;28;20040;-87
2023/01/05 06:45:46;;;;;;;19.83;5.05;;;10.00;99.90;;;;;;5048086;28;20162;-87
2023/01/05 06:48:12;;;;;;;20.90;4.68;;;10.00;99.90;;;;;;5063961;28;20048;-87
2023/01/05 06:50:37;;;;;;;23.20;4.63;;;10.00;99.90;;;;;;5065770;28;20036;-87
2023/01/05 06:53:03;;;;;;;16.60;4.22;;;10.00;99.90;;;;;;5049267;28;20452;-87
2023/01/05 06:55:28;;;;;;;19.25;4.50;;;10.00;99.90;;;;;;5050898;28;20043;-87
2023/01/05 06:57:54;;;;;;;16.15;4.65;;;10.00;99.90;;;;;;5045831;28;20072;-85
2023/01/05 07:00:20;;;;;;;19.45;4.38;;;10.00;99.90;;;;;;5049699;28;20053;-86
2023/01/05 07:02:46;;;;;;;23.35;5.80;;;10.00;99.90;;;;;;5048901;28;20040;-87
2023/01/05 07:05:11;;;;;;;22.40;4.43;;;10.00;99.90;;;;;;5065765;28;21517;-86
2023/01/05 07:07:37;;;;;;;15.15;3.67;;;10.00;99.90;;;;;;5061055;28;20400;-87
2023/01/05 07:10:04;;;;;;;18.90;4.72;;;10.00;99.90;;;;;;5048154;28;20040;-86
2023/01/05 07:12:29;;;;;;;20.83;4.45;;;10.00;99.90;;;;;;5050259;28;20044;-86
2023/01/05 07:14:55;;;;;;;20.65;4.30;;;10.00;99.90;;;;;;5065161;28;20649;-86
2023/01/05 07:17:20;;;;;;;22.23;4.75;;;10.00;99.90;;;;;;5063831;28;20048;-86
2023/01/05 07:19:46;;;;;;;23.90;5.13;;;9.90;99.90;;;;;;5049744;28;20412;-87
2023/01/05 07:22:11;;;;;;;18.35;4.60;;;10.00;99.90;;;;;;5078538;28;20070;-87
2023/01/05 07:24:37;;;;;;;22.08;4.75;;;10.00;99.90;;;;;;5062690;28;20050;-86
2023/01/05 07:27:03;;;;;;;20.23;4.70;;;10.00;99.90;;;;;;5048980;28;20040;-86
2023/01/05 07:29:29;;;;;;;27.52;4.80;;;10.00;99.90;;;;;;5065778;28;20040;-86
2023/01/05 07:31:54;;;;;;;27.27;4.88;;;9.90;99.90;;;;;;5047533;28;20147;-87
2023/01/05 07:34:21;;;;;;;22.65;5.15;;;9.90;99.90;;;;;;5050792;28;20053;-86
2023/01/05 07:36:47;;;;;;;27.02;4.78;;;9.90;99.90;;;;;;5064389;28;20036;-86
2023/01/05 07:39:13;;;;;;;19.27;4.53;;;9.90;99.90;;;;;;5051144;28;20060;-87
2023/01/05 07:41:39;;;;;;;23.10;4.72;;;9.90;99.90;;;;;;5062675;28;20053;-87
2023/01/05 07:44:05;;;;;;;20.55;4.60;;;9.90;99.90;;;;;;5051147;28;20042;-86
2023/01/05 07:46:30;;;;;;;22.50;5.40;;;9.80;99.90;;;;;;5050127;28;20040;-86
2023/01/05 07:48:56;;;;;;;25.90;5.13;;;9.80;99.90;;;;;;5065552;28;20058;-86
2023/01/05 07:51:21;;;;;;;24.95;4.72;;;9.90;99.90;;;;;;5049699;28;20067;-86
2023/01/05 07:53:47;;;;;;;21.40;4.60;;;9.90;99.90;;;;;;5060361;28;20451;-86
2023/01/05 07:56:13;;;;;;;21.75;4.93;;;9.90;99.90;;;;;;5049299;28;20075;-87
2023/01/05 07:58:41;;;;;;;21.33;4.82;;;9.90;99.90;;;;;;5067303;28;20064;-87
2023/01/05 08:01:09;;;;;;;22.17;4.78;;;9.90;99.90;;;;;;5048893;28;20119;-86
2023/01/05 08:03:35;;;;;;;21.13;4.38;;;9.90;99.90;;;;;;5066456;28;20043;-87
2023/01/05 08:06:09;;;;;;;18.65;4.50;;;9.90;99.90;;;;;;5065390;28;20040;-86
2023/01/05 08:08:35;;;;;;;24.58;4.70;;;9.90;99.90;;;;;;5064165;28;20044;-87
2023/01/05 08:11:06;;;;;;;25.02;5.22;;;9.90;99.90;;;;;;5066557;28;20043;-87
2023/01/05 08:16:17;;;;;;;;;;;9.90;99.90;;;;;;5064044;28;20048;-87
2023/01/05 08:18:42;;;;;;;23.88;4.63;;;9.90;99.90;;;;;;5064891;28;19927;-86
2023/01/05 08:21:08;;;;;;;20.65;4.53;;;9.90;99.90;;;;;;5047574;28;20037;-86
2023/01/05 08:23:35;;;;;;;22.45;4.40;;;9.90;99.90;;;;;;5049659;28;20059;-87
2023/01/05 08:26:21;;;;;;;24.88;4.50;;;9.90;99.90;;;;;;5049964;28;20056;-86
2023/01/05 08:28:47;;;;;;;21.88;4.55;;;9.90;99.90;;;;;;5050291;28;20040;-86
2023/01/05 08:31:19;;;;;;;18.42;4.40;;;9.90;99.90;;;;;;5045977;28;20048;-87
2023/01/05 08:33:45;;;;;;;24.75;4.68;;;9.90;99.90;;;;;;5065318;28;20072;-86
2023/01/05 08:36:13;;;;;;;21.08;4.65;;;9.90;99.90;;;;;;5045629;28;20064;-86
2023/01/05 08:38:46;;;;;;;20.42;4.30;;;9.90;99.90;;;;;;5066076;28;20037;-86
2023/01/05 08:41:15;;;;;;;18.17;4.05;;;9.90;99.90;;;;;;5049227;28;20135;-87
2023/01/05 08:43:40;;;;;;;20.35;4.70;;;9.90;99.90;;;;;;5066403;28;20094;-87
2023/01/05 08:46:06;;;;;;;18.20;4.25;;;9.90;99.90;;;;;;5064943;28;20450;-86
2023/01/05 08:48:31;;;;;;;18.45;4.10;;;9.90;99.90;;;;;;5049837;28;20127;-86
2023/01/05 08:51:02;;;;;;;17.88;4.43;;;9.90;99.90;;;;;;5065656;28;20043;-87
2023/01/05 08:53:28;;;;;;;17.17;4.35;;;9.90;99.90;;;;;;5064336;28;20411;-87
2023/01/05 08:55:53;;;;;;;22.20;4.68;;;9.90;99.90;;;;;;5044142;28;20033;-87
2023/01/05 08:58:19;;;;;;;15.77;4.15;;;9.90;99.90;;;;;;5065295;28;20493;-87
2023/01/05 09:00:45;;;;;;;22.38;5.10;;;9.90;99.90;;;;;;5046021;28;20032;-87
2023/01/05 09:03:10;;;;;;;20.42;3.80;;;9.90;99.90;;;;;;5047195;28;20038;-86
2023/01/05 09:05:36;;;;;;;24.15;4.57;;;9.90;99.90;;;;;;5048443;28;20409;-86
2023/01/05 09:08:01;;;;;;;20.10;4.38;;;10.00;99.90;;;;;;5047796;28;20048;-86
2023/01/05 09:10:27;;;;;;;20.05;4.20;;;10.00;99.90;;;;;;5063792;28;20044;-87
2023/01/05 09:12:52;;;;;;;19.10;4.25;;;10.00;99.90;;;;;;5062856;28;20044;-87
2023/01/05 09:15:18;;;;;;;21.35;4.50;;;10.00;99.90;;;;;;5049002;28;20044;-87
2023/01/05 09:17:43;;;;;;;27.33;4.70;;;10.00;99.90;;;;;;5045314;28;20033;-87
2023/01/05 09:20:09;;;;;;;23.88;5.13;;;10.00;99.90;;;;;;5046746;28;20052;-86
2023/01/05 09:22:35;;;;;;;21.70;4.25;;;10.00;99.90;;;;;;5046940;28;20043;-86
2023/01/05 09:25:01;;;;;;;19.17;4.05;;;10.10;99.90;;;;;;5048837;28;20032;-87
2023/01/05 09:27:27;;;;;;;26.92;4.72;;;10.00;99.90;;;;;;5047586;28;20504;-87
2023/01/05 09:29:52;;;;;;;18.88;4.05;;;10.10;99.90;;;;;;5048685;28;20075;-86
2023/01/05 09:32:18;;;;;;;22.52;4.85;;;10.10;99.90;;;;;;5064099;28;20484;-86
2023/01/05 09:34:43;;;;;;;20.65;4.25;;;10.10;99.90;;;;;;5048237;28;20045;-87
2023/01/05 09:37:09;;;;;;;17.60;3.75;;;10.10;99.90;;;;;;5062034;28;20036;-87
2023/01/05 09:39:35;;;;;;;22.20;3.95;;;10.10;99.90;;;;;;5048323;28;20073;-86
2023/01/05 09:42:05;;;;;;;18.23;4.45;;;10.10;99.90;;;;;;5048943;28;20036;-87
2023/01/05 09:44:34;;;;;;;18.75;3.80;;;10.10;99.90;;;;;;5047635;28;20044;-86
2023/01/05 09:47:23;;;;;;;22.23;4.53;;;10.10;99.90;;;;;;5080448;28;20056;-87
2023/01/05 09:49:49;;;;;;;16.88;3.85;;;10.10;99.90;;;;;;5063180;28;20051;-86
2023/01/05 09:52:17;;;;;;;20.13;4.22;;;10.10;99.90;;;;;;5062080;28;20044;-86
2023/01/05 09:54:43;;;;;;;23.00;4.57;;;10.20;99.90;;;;;;5045061;28;20505;-86
2023/01/05 09:57:28;;;;;;;22.67;4.28;;;10.10;99.90;;;;;;5048097;28;20131;-87
2023/01/05 09:59:59;;;;;;;;;;;10.20;99.90;;;;;;5046830;28;20037;-86
2023/01/05 10:02:50;;;;;;;17.58;4.22;;;10.20;99.90;;;;;;5048420;28;20265;-86
2023/01/05 10:05:16;;;;;;;15.63;4.60;;;10.10;99.90;;;;;;5077177;28;20123;-87
2023/01/05 10:07:46;;;;;;;20.02;4.32;;;10.10;99.90;;;;;;5046167;28;20874;-87
2023/01/05 10:13:39;;;;;;;22.30;4.25;;;10.20;99.90;;;;;;5063845;28;20080;-86
2023/01/05 10:16:05;;;;;;;19.63;3.92;;;10.20;99.90;;;;;;5061689;28;20158;-86
2023/01/05 10:18:33;;;;;;;19.75;3.65;;;10.20;99.90;;;;;;5063105;28;20458;-86
2023/01/05 10:21:05;;;;;;;16.35;3.47;;;10.20;99.90;;;;;;5048432;28;20369;-86
2023/01/05 10:23:36;;;;;;;18.98;3.60;;;10.20;99.90;;;;;;5051758;28;20127;-87
2023/01/05 10:26:23;;;;;;;23.92;4.47;;;10.30;99.90;;;;;;5051321;28;20044;-86
2023/01/05 10:29:09;;;;;;;16.50;3.55;;;10.30;99.90;;;;;;5082545;28;20059;-86
2023/01/05 10:31:49;;;;;;;20.15;3.50;;;10.20;99.90;;;;;;5065650;28;20587;-87
2023/01/05 10:34:39;;;;;;;14.70;3.90;;;10.20;99.90;;;;;;5066623;28;20046;-87
2023/01/05 10:37:24;;;;;;;15.48;3.95;;;10.20;99.90;;;;;;5050764;28;20572;-87
2023/01/05 10:40:08;;;;;;;;;;;10.10;99.90;;;;;;5083444;28;20123;-86
2023/01/05 10:42:47;;;;;;;18.80;4.10;;;10.20;99.90;;;;;;5079948;28;20336;-86
2023/01/05 10:45:16;;;;;;;19.48;4.15;;;10.10;99.90;;;;;;5052665;28;20040;-87
2023/01/05 10:47:43;;;;;;;20.95;4.10;;;10.20;99.90;;;;;;5084037;28;20037;-85
2023/01/05 10:50:39;;;;;;;15.35;3.70;;;10.10;99.90;;;;;;5057657;28;20045;-86
2023/01/05 10:53:11;;;;;;;19.20;4.65;;;10.10;99.90;;;;;;5049065;28;20044;-86
2023/01/05 10:55:56;;;;;;;18.50;5.22;;;10.20;99.90;;;;;;5061768;28;20063;-87
2023/01/05 10:58:26;;;;;;;17.70;4.45;;;10.20;99.90;;;;;;5047622;28;20441;-87
2023/01/05 11:00:56;;;;;;;21.45;4.20;;;10.10;99.90;;;;;;5048279;28;20456;-86
2023/01/05 11:03:31;;;;;;;26.20;4.70;;;10.10;99.90;;;;;;5063444;28;20100;-86
2023/01/05 11:05:58;;;;;;;21.10;4.45;;;10.10;99.90;;;;;;5046581;28;20040;-87
2023/01/05 11:08:29;;;;;;;17.80;4.43;;;10.10;99.90;;;;;;5047429;28;20132;-87
2023/01/05 11:11:04;;;;;;;15.93;4.25;;;10.10;99.90;;;;;;5038439;28;20131;-86
2023/01/05 11:13:39;;;;;;;20.13;4.30;;;10.10;99.90;;;;;;5062550;28;20075;-87
2023/01/05 11:16:11;;;;;;;;;;;10.20;99.90;;;;;;5058368;28;20404;-87
2023/01/05 11:18:47;;;;;;;19.80;4.30;;;10.20;99.90;;;;;;5074856;28;19931;-86
2023/01/05 11:21:43;;;;;;;19.88;3.60;;;10.30;99.90;;;;;;5045443;28;20350;-86
2023/01/05 11:24:31;;;;;;;12.32;2.83;;;10.30;99.90;;;;;;5043471;28;20040;-86
2023/01/05 11:27:02;;;;;;;14.45;2.97;;;10.40;99.90;;;;;;5057553;28;20045;-85
2023/01/05 11:29:29;;;;;;;17.48;3.53;;;10.40;99.90;;;;;;5046972;28;20489;-85
2023/01/05 11:32:08;;;;;;;13.70;2.90;;;10.40;99.90;;;;;;5044486;28;20036;-86
2023/01/05 11:34:45;;;;;;;15.27;3.45;;;10.40;99.90;;;;;;5044774;28;20039;-85
2023/01/05 11:37:11;;;;;;;17.95;3.80;;;10.50;99.90;;;;;;5043746;28;20124;-85
2023/01/05 11:39:45;;;;;;;14.25;3.20;;;10.50;99.90;;;;;;5044127;28;20434;-85
2023/01/05 11:42:18;;;;;;;;;;;10.50;99.90;;;;;;5079163;28;20048;-85
2023/01/05 11:45:04;;;;;;;17.25;3.50;;;10.60;99.90;;;;;;5078452;28;20302;-86
2023/01/05 11:47:44;;;;;;;21.77;4.00;;;10.60;99.90;;;;;;5044623;28;20055;-86
2023/01/05 11:50:13;;;;;;;20.35;4.57;;;10.70;99.90;;;;;;5061700;28;20539;-85
2023/01/05 11:52:44;;;;;;;16.98;3.72;;;10.70;99.90;;;;;;5044884;28;20123;-85
2023/01/05 11:55:19;;;;;;;18.17;3.42;;;10.70;99.90;;;;;;5062960;28;20499;-85
2023/01/05 11:57:46;;;;;;;15.88;3.63;;;10.80;99.90;;;;;;5060103;28;20047;-86
2023/01/05 12:00:33;;;;;;;10.70;3.15;;;10.90;99.90;;;;;;5044899;28;20048;-85
2023/01/05 12:03:20;;;;;;;12.43;3.00;;;11.00;99.90;;;;;;5061224;28;20068;-85
2023/01/05 12:05:55;;;;;;;11.60;2.90;;;11.10;99.90;;;;;;5049422;28;20407;-86
2023/01/05 12:08:28;;;;;;;14.25;3.20;;;11.10;99.90;;;;;;5048617;28;20496;-86
2023/01/05 12:11:16;;;;;;;15.43;3.92;;;11.10;99.90;;;;;;5058772;28;20040;-85
2023/01/05 12:14:05;;;;;;;18.70;3.63;;;11.10;99.90;;;;;;5063648;28;20078;-86
2023/01/05 12:16:38;;;;;;;13.40;3.55;;;11.20;99.90;;;;;;5046449;28;20040;-85
2023/01/05 12:19:56;;;;;;;17.48;4.03;;;11.20;99.90;;;;;;5058258;28;20131;-86
2023/01/05 12:22:39;;;;;;;14.45;3.55;;;11.10;99.90;;;;;;5027589;28;20052;-86
2023/01/05 12:25:30;;;;;;;17.10;3.92;;;11.00;99.90;;;;;;5044368;28;20504;-85
2023/01/05 12:28:34;;;;;;;16.88;3.83;;;10.90;99.90;;;;;;5047982;28;20041;-85
2023/01/05 12:31:18;;;;;;;16.98;3.60;;;10.80;99.90;;;;;;5065448;28;20067;-85
2023/01/05 12:34:01;;;;;;;22.08;4.20;;;10.80;99.90;;;;;;5065062;28;20137;-85
2023/01/05 12:37:04;;;;;;;17.63;3.80;;;10.80;99.90;;;;;;5065216;28;20576;-85
2023/01/05 12:39:56;;;;;;;18.30;4.30;;;10.90;99.90;;;;;;5065290;28;20455;-85
2023/01/05 12:42:43;;;;;;;20.08;4.70;;;10.90;99.90;;;;;;5044612;28;20043;-86
2023/01/05 12:45:26;;;;;;;16.75;4.00;;;10.90;99.90;;;;;;5061097;28;20036;-85
2023/01/05 12:48:20;;;;;;;16.42;3.95;;;10.90;99.90;;;;;;5048199;28;20400;-86
2023/01/05 12:51:08;;;;;;;15.88;4.18;;;10.80;99.90;;;;;;5048528;28;20048;-85
2023/01/05 12:53:34;;;;;;;21.10;4.80;;;10.80;99.90;;;;;;5043729;28;20052;-85
2023/01/05 12:56:10;;;;;;;16.38;4.43;;;10.80;99.90;;;;;;5061646;28;20044;-85
2023/01/05 12:58:47;;;;;;;18.23;3.70;;;10.80;99.90;;;;;;5065220;28;20047;-85
2023/01/05 13:01:22;;;;;;;14.95;4.22;;;10.70;99.90;;;;;;5045660;28;20040;-85
2023/01/05 13:03:55;;;;;;;20.80;4.13;;;10.70;99.90;;;;;;5063338;28;20037;-86
2023/01/05 13:06:23;;;;;;;18.63;4.30;;;10.70;99.90;;;;;;5062680;28;20055;-85
2023/01/05 13:08:57;;;;;;;15.85;4.25;;;10.70;99.90;;;;;;5063288;28;20071;-85
2023/01/05 13:11:33;;;;;;;18.50;4.65;;;10.70;99.90;;;;;;5058858;28;20040;-85
2023/01/05 13:14:08;;;;;;;20.08;4.25;;;10.70;99.90;;;;;;5044994;28;20568;-85
2023/01/05 13:16:40;;;;;;;19.27;3.95;;;10.70;99.90;;;;;;5045798;28;20041;-85
2023/01/05 13:19:23;;;;;;;15.55;4.05;;;10.70;99.90;;;;;;5046948;28;20110;-85
2023/01/05 13:21:52;;;;;;;15.95;4.35;;;10.70;99.90;;;;;;5048194;28;20515;-85
2023/01/05 13:24:28;;;;;;;19.20;4.22;;;10.70;99.90;;;;;;5065170;28;20036;-86
2023/01/05 13:26:55;;;;;;;18.50;3.88;;;10.70;99.90;;;;;;5063486;28;20075;-86
2023/01/05 13:29:33;;;;;;;18.67;4.40;;;10.60;99.90;;;;;;5047609;28;20499;-85
2023/01/05 13:32:31;;;;;;;17.10;3.95;;;10.60;99.90;;;;;;5063380;28;20048;-85
2023/01/05 13:35:13;;;;;;;21.50;4.05;;;10.60;99.90;;;;;;5047660;28;20496;-85
2023/01/05 13:38:03;;;;;;;19.50;4.00;;;10.60;99.90;;;;;;5048516;28;20464;-85
2023/01/05 13:40:49;;;;;;;17.13;3.75;;;10.60;99.90;;;;;;5046059;28;20301;-85